Time;durP1;ratioP1;P1;durP2;ratioP2;P2;SDS_P1;SDS_P2;PMS_P1;PMS_P2;Temp;Humidity;BMP_temperature;BMP_pressure;BME280_temperature;BME280_humidity;BME280_pressure;Samples;Min_cycle;Max_cycle;Signal;HPM_P1;HPM_P2
2021/12/10 00:00:03;;;;;;;39.13;18.52;;;;;;;1.97;100.00;100148.28;1790474;80;21009;-80
2021/12/10 00:02:35;;;;;;;28.75;12.63;;;;;;;2.01;100.00;100151.31;1765998;80;21531;-81
2021/12/10 00:05:04;;;;;;;35.68;14.87;;;;;;;2.01;100.00;100151.31;1790250;80;23268;-81
2021/12/10 00:07:31;;;;;;;31.70;14.43;;;;;;;1.98;100.00;100144.40;1790280;80;21036;-78
2021/12/10 00:10:01;;;;;;;21.90;11.55;;;;;;;2.04;100.00;100151.30;1790246;80;21048;-81
2021/12/10 00:12:32;;;;;;;36.60;14.30;;;;;;;2.03;100.00;100149.58;1790057;80;21626;-82
2021/12/10 00:14:59;;;;;;;35.65;15.23;;;;;;;2.03;100.00;100152.18;1789519;80;21060;-80
2021/12/10 00:17:26;;;;;;;35.73;15.05;;;;;;;2.03;100.00;100152.18;1789717;80;21155;-79
2021/12/10 00:19:57;;;;;;;30.45;12.88;;;;;;;2.05;100.00;100155.20;1789925;80;21753;-79
2021/12/10 00:22:42;;;;;;;25.17;11.50;;;;;;;2.06;100.00;100153.46;1789808;80;21004;-79
2021/12/10 00:25:16;;;;;;;39.15;14.85;;;;;;;2.08;100.00;100150.44;1790078;80;21016;-78
2021/12/10 00:27:42;;;;;;;26.95;12.28;;;;;;;2.09;100.00;100155.63;1789724;80;21060;-78
2021/12/10 00:30:23;;;;;;;47.50;16.67;;;;;;;2.11;100.00;100158.20;1789630;80;22003;-80
2021/12/10 00:32:58;;;;;;;31.85;13.50;;;;;;;2.10;100.00;100146.09;1789138;80;21076;-79
2021/12/10 00:35:25;;;;;;;37.75;16.02;;;;;;;2.12;100.00;100144.78;1788908;80;21040;-79
2021/12/10 00:37:51;;;;;;;28.87;14.33;;;;;;;2.13;100.00;100150.42;1790003;80;21016;-79
2021/12/10 00:40:20;;;;;;;41.37;16.42;;;;;;;2.16;100.00;100153.86;1789865;80;21555;-77
2021/12/10 00:42:46;;;;;;;38.73;15.00;;;;;;;2.17;100.00;100151.71;1789632;80;21144;-78
2021/12/10 00:45:15;;;;;;;40.12;16.93;;;;;;;2.19;100.00;100153.88;1789629;80;21036;-77
2021/12/10 00:47:42;;;;;;;36.45;14.73;;;;;;;2.23;100.00;100159.50;1789856;80;21579;-81
2021/12/10 00:50:14;;;;;;;36.48;13.93;;;;;;;2.24;100.00;100159.91;1789829;80;21010;-80
2021/12/10 00:52:42;;;;;;;54.75;20.92;;;;;;;2.26;100.00;100167.72;1789715;80;20997;-79
2021/12/10 00:55:09;;;;;;;67.87;27.42;;;;;;;2.26;100.00;100163.38;1789972;80;21524;-78
2021/12/10 00:57:36;;;;;;;41.70;17.62;;;;;;;2.26;100.00;100160.78;1760363;80;21193;-79
2021/12/10 01:00:09;;;;;;;46.68;17.02;;;;;;;2.28;100.00;100151.25;1758913;80;21023;-77
2021/12/10 01:02:36;;;;;;;37.40;15.30;;;;;;;2.29;100.00;100152.97;1789364;80;21088;-80
2021/12/10 01:05:06;;;;;;;40.60;16.77;;;;;;;2.29;100.00;100152.97;1778391;80;21003;-80
2021/12/10 01:07:34;;;;;;;43.90;15.63;;;;;;;2.31;100.00;100144.73;1758584;80;21155;-79
2021/12/10 01:10:04;;;;;;;39.03;15.30;;;;;;;2.31;100.00;100146.03;1758589;81;21055;-79
2021/12/10 01:12:39;;;;;;;38.13;15.83;;;;;;;2.34;100.00;100139.09;1758316;81;21051;-79
2021/12/10 01:23:50;;;;;;;33.98;14.15;;;;;;;2.43;100.00;100129.52;1758261;81;21012;-75
2021/12/10 01:28:47;;;;;;;38.05;15.13;;;;;;;2.50;100.00;100119.97;1789277;80;21079;-75
2021/12/10 01:31:14;;;;;;;31.85;13.70;;;;;;;2.53;100.00;100121.25;1789080;80;21048;-77
2021/12/10 01:33:42;;;;;;;43.58;16.32;;;;;;;2.55;100.00;100118.20;1789475;80;22013;-77
2021/12/10 01:36:09;;;;;;;36.80;15.13;;;;;;;2.58;100.00;100114.31;1789749;80;21114;-77
2021/12/10 01:38:38;;;;;;;34.48;15.20;;;;;;;2.61;100.00;100112.98;1789529;80;21019;-77
2021/12/10 01:41:09;;;;;;;38.47;16.37;;;;;;;2.63;100.00;100115.15;1789655;80;21115;-78
2021/12/10 01:43:40;;;;;;;45.48;18.42;;;;;;;2.66;100.00;100106.02;1789218;80;21724;-78
2021/12/10 01:46:14;;;;;;;39.90;17.45;;;;;;;2.69;100.00;100111.23;1783702;80;21291;-78
2021/12/10 01:48:47;;;;;;;56.68;19.12;;;;;;;2.75;100.00;100109.46;1783601;80;21119;-77
2021/12/10 01:51:18;;;;;;;38.40;16.48;;;;;;;2.79;100.00;100103.38;1771554;80;21001;-77
2021/12/10 01:53:47;;;;;;;91.12;19.23;;;;;;;2.83;100.00;100099.86;1752651;81;21116;-77
2021/12/10 01:56:18;;;;;;;49.98;19.27;;;;;;;2.86;100.00;100098.12;1764129;80;21006;-76
2021/12/10 01:58:45;;;;;;;38.02;17.55;;;;;;;2.91;100.00;100098.09;1783460;80;21114;-76
2021/12/10 02:01:17;;;;;;;40.15;17.73;;;;;;;2.92;100.00;100099.80;1783331;80;21064;-77
2021/12/10 02:03:43;;;;;;;52.50;18.45;;;;;;;2.96;100.00;100104.56;1783253;80;21008;-78
2021/12/10 02:06:10;;;;;;;41.40;18.10;;;;;;;2.99;100.00;100101.52;1783407;80;21037;-77
2021/12/10 02:08:39;;;;;;;55.03;18.57;;;;;;;3.01;100.00;100089.34;1783186;80;21091;-76
2021/12/10 02:11:05;;;;;;;50.65;19.23;;;;;;;3.05;100.00;100091.05;1783866;80;21823;-75
2021/12/10 02:13:33;;;;;;;53.15;20.35;;;;;;;3.05;100.00;100075.44;1783444;80;21107;-77
2021/12/10 02:15:59;;;;;;;62.83;19.48;;;;;;;3.08;100.00;100071.53;1784046;80;21611;-76
2021/12/10 02:18:26;;;;;;;41.68;18.25;;;;;;;3.12;100.00;100081.02;1783738;80;21583;-76
2021/12/10 02:21:04;;;;;;;50.38;19.07;;;;;;;3.15;100.00;100076.23;1783411;80;21298;-77
2021/12/10 02:23:36;;;;;;;35.83;14.80;;;;;;;3.20;100.00;100086.60;1781750;80;21499;-78
2021/12/10 02:26:05;;;;;;;41.23;18.02;;;;;;;3.25;100.00;100093.96;1783812;80;21512;-77
2021/12/10 02:28:31;;;;;;;44.73;18.52;;;;;;;3.32;100.00;100095.64;1783667;80;21091;-77
2021/12/10 02:31:00;;;;;;;37.78;17.37;;;;;;;3.43;100.00;100096.83;1783180;80;22119;-75
2021/12/10 02:33:27;;;;;;;49.50;18.87;;;;;;;3.49;100.00;100096.34;1783765;80;21099;-76
2021/12/10 02:35:53;;;;;;;40.73;19.15;;;;;;;3.55;100.00;100101.95;1783654;80;21180;-76
2021/12/10 02:38:22;;;;;;;35.48;17.05;;;;;;;3.62;100.00;100101.46;1783714;80;21032;-77
2021/12/10 02:40:50;;;;;;;48.25;18.57;;;;;;;3.66;100.00;100100.53;1783832;80;21048;-78
2021/12/10 02:43:19;;;;;;;33.67;16.60;;;;;;;3.69;100.00;100107.03;1783843;80;21044;-78
2021/12/10 02:45:50;;;;;;;46.48;19.95;;;;;;;3.68;100.00;100108.78;1783514;80;21060;-79
2021/12/10 02:48:17;;;;;;;45.90;21.23;;;;;;;3.72;100.00;100104.39;1783832;80;21080;-78
2021/12/10 02:50:44;;;;;;;31.10;15.53;;;;;;;3.74;100.00;100116.52;1783838;80;21087;-79
2021/12/10 02:53:14;;;;;;;54.45;21.40;;;;;;;3.75;100.00;100107.84;1783869;80;21039;-78
2021/12/10 02:55:40;;;;;;;50.88;20.25;;;;;;;3.80;100.00;100115.62;1779711;80;21092;-78
2021/12/10 02:58:11;;;;;;;55.12;19.82;;;;;;;3.81;100.00;100109.52;1752809;81;21030;-78
2021/12/10 03:00:43;;;;;;;55.03;19.02;;;;;;;3.82;100.00;100111.26;1733920;80;21988;-81
2021/12/10 03:03:09;;;;;;;47.90;19.45;;;;;;;3.83;100.00;100110.36;1731894;82;21719;-81
2021/12/10 03:05:37;;;;;;;56.77;20.55;;;;;;;3.82;100.00;100109.95;1731876;82;21063;-81
2021/12/10 03:08:04;;;;;;;65.95;20.70;;;;;;;3.84;100.00;100113.38;1732480;82;21027;-80
2021/12/10 03:10:32;;;;;;;41.42;18.48;;;;;;;3.84;100.00;100108.17;1733701;82;21141;-80
2021/12/10 03:12:59;;;;;;;61.20;18.82;;;;;;;3.83;100.00;100111.66;1758452;80;21081;-81
2021/12/10 03:15:26;;;;;;;37.17;16.45;;;;;;;3.84;100.00;100112.08;1757822;81;21012;-80
2021/12/10 03:17:53;;;;;;;50.60;18.82;;;;;;;3.88;100.00;100116.39;1758512;81;21054;-81
2021/12/10 03:20:22;;;;;;;49.80;18.52;;;;;;;3.89;100.00;100106.41;1758675;81;21058;-82
2021/12/10 03:22:49;;;;;;;32.70;16.95;;;;;;;3.94;100.00;100105.91;1758874;81;21012;-82
2021/12/10 03:25:17;;;;;;;37.88;17.12;;;;;;;3.95;100.00;100097.20;1759193;81;21112;-81
2021/12/10 03:27:44;;;;;;;32.25;17.12;;;;;;;3.98;100.00;100106.76;1758359;81;21063;-78
2021/12/10 03:30:16;;;;;;;37.38;17.12;;;;;;;3.99;100.00;100109.33;1756955;81;20995;-80
2021/12/10 03:32:43;;;;;;;35.25;19.52;;;;;;;4.05;100.00;100114.05;1756693;81;21043;-80
2021/12/10 03:35:18;;;;;;;34.33;17.07;;;;;;;4.07;100.00;100122.71;1756257;81;21083;-78
2021/12/10 03:37:49;;;;;;;36.68;18.40;;;;;;;4.07;100.00;100121.41;1756070;81;21142;-80
2021/12/10 03:40:15;;;;;;;42.17;20.30;;;;;;;4.08;100.00;100125.76;1754717;81;21067;-79
2021/12/10 03:42:42;;;;;;;34.38;17.92;;;;;;;4.08;100.00;100125.76;1755785;81;21010;-80
2021/12/10 03:45:10;;;;;;;33.92;19.12;;;;;;;4.09;100.00;100127.47;1755581;80;21023;-80
2021/12/10 03:47:36;;;;;;;25.48;14.00;;;;;;;4.12;100.00;100137.89;1779024;80;21068;-80
2021/12/10 03:50:04;;;;;;;38.00;19.45;;;;;;;4.13;100.00;100131.78;1783875;80;21080;-79
2021/12/10 03:52:32;;;;;;;41.02;21.48;;;;;;;4.16;100.00;100128.72;1783912;80;21072;-81
2021/12/10 03:55:00;;;;;;;39.78;19.80;;;;;;;4.07;100.00;100109.68;1784175;80;21100;-81
2021/12/10 03:57:27;;;;;;;40.85;20.32;;;;;;;4.18;100.00;100128.67;1784318;80;21040;-84
2021/12/10 03:59:53;;;;;;;43.28;20.75;;;;;;;4.18;100.00;100124.77;1785165;80;21634;-86
2021/12/10 04:02:20;;;;;;;35.70;18.57;;;;;;;4.20;100.00;100123.01;1787076;80;21966;-84
2021/12/10 04:04:49;;;;;;;40.25;21.23;;;;;;;4.19;100.00;100125.20;1785470;80;21056;-81
2021/12/10 04:07:21;;;;;;;35.70;18.82;;;;;;;4.20;100.00;100120.41;1784201;80;21079;-78
2021/12/10 04:09:49;;;;;;;38.23;19.65;;;;;;;4.19;100.00;100121.30;1784101;80;21056;-80
2021/12/10 04:12:17;;;;;;;40.35;21.62;;;;;;;4.17;100.00;100126.97;1783926;80;21037;-78
2021/12/10 04:14:45;;;;;;;34.35;18.37;;;;;;;4.16;100.00;100126.52;1784171;80;21970;-77
2021/12/10 04:17:11;;;;;;;42.33;21.62;;;;;;;4.17;100.00;100120.45;1783629;80;21006;-78
2021/12/10 04:19:39;;;;;;;35.33;18.17;;;;;;;4.19;100.00;100134.33;1783729;80;21115;-81
2021/12/10 04:22:07;;;;;;;38.88;20.70;;;;;;;4.17;100.00;100132.17;1783861;80;21025;-80
2021/12/10 04:24:37;;;;;;;37.70;20.17;;;;;;;4.15;100.00;100132.18;1784019;80;21305;-80
2021/12/10 04:27:06;;;;;;;37.38;18.98;;;;;;;4.16;100.00;100129.13;1784082;80;21789;-78
2021/12/10 04:29:33;;;;;;;42.88;20.68;;;;;;;4.15;100.00;100135.23;1783660;80;21052;-80
2021/12/10 04:32:00;;;;;;;38.67;20.32;;;;;;;4.19;100.00;100133.03;1770720;80;21072;-79
2021/12/10 04:34:27;;;;;;;38.55;18.80;;;;;;;4.15;100.00;100130.02;1764266;80;21059;-74
2021/12/10 04:36:55;;;;;;;42.98;21.05;;;;;;;4.12;100.00;100136.14;1754040;80;21149;-70
2021/12/10 04:39:23;;;;;;;35.03;19.23;;;;;;;4.12;100.00;100135.28;1759788;80;21207;-68
2021/12/10 04:41:50;;;;;;;42.85;22.60;;;;;;;4.11;100.00;100139.61;1748030;80;21148;-67
2021/12/10 04:44:17;;;;;;;40.55;20.55;;;;;;;4.10;100.00;100136.59;1751750;81;21123;-66
2021/12/10 04:46:43;;;;;;;40.92;19.65;;;;;;;4.12;100.00;100133.98;1754683;80;21092;-67
2021/12/10 04:49:12;;;;;;;42.48;21.93;;;;;;;4.13;100.00;100129.17;1757378;80;21143;-66
2021/12/10 04:51:42;;;;;;;37.80;20.02;;;;;;;4.17;100.00;100126.97;1778456;80;21145;-67
2021/12/10 04:54:10;;;;;;;38.08;20.75;;;;;;;4.18;100.00;100132.59;1789844;80;21071;-70
2021/12/10 04:56:37;;;;;;;40.08;21.40;;;;;;;4.19;100.00;100129.12;1773315;80;21048;-67
2021/12/10 04:59:06;;;;;;;37.25;18.82;;;;;;;4.19;100.00;100121.30;1762344;80;21036;-68
2021/12/10 05:01:33;;;;;;;40.73;19.12;;;;;;;4.17;100.00;100121.75;1758162;80;21040;-69
2021/12/10 05:04:02;;;;;;;33.85;18.05;;;;;;;4.21;100.00;100128.66;1762165;80;21685;-68
2021/12/10 05:06:29;;;;;;;33.23;18.15;;;;;;;4.22;100.00;100128.22;1770205;80;21033;-68
2021/12/10 05:08:55;;;;;;;36.13;18.42;;;;;;;4.23;100.00;100129.93;1771514;80;21004;-68
2021/12/10 05:11:22;;;;;;;31.93;18.37;;;;;;;4.27;100.00;100124.66;1764062;80;21021;-67
2021/12/10 05:13:49;;;;;;;34.95;17.87;;;;;;;4.25;100.00;100130.78;1758204;81;21071;-71
2021/12/10 05:16:25;;;;;;;38.53;20.12;;;;;;;4.20;100.00;100133.44;1772503;80;21017;-68
2021/12/10 05:18:55;;;;;;;33.35;16.77;;;;;;;4.22;100.00;100131.67;1788524;80;21037;-67
2021/12/10 05:21:16;;;;;;;40.55;20.08;;;;;;;4.20;100.00;100136.05;1775761;80;21032;-67
2021/12/10 05:23:43;;;;;;;32.30;18.00;;;;;;;4.19;100.00;100142.16;1778294;80;21539;-68
2021/12/10 05:26:09;;;;;;;40.00;19.32;;;;;;;4.18;100.00;100145.62;1758105;81;21519;-68
2021/12/10 05:28:35;;;;;;;36.53;18.70;;;;;;;4.16;100.00;100143.47;1758025;81;21744;-67
2021/12/10 05:31:02;;;;;;;39.00;19.65;;;;;;;4.16;100.00;100142.16;1758015;81;21000;-67
2021/12/10 05:33:29;;;;;;;41.48;20.92;;;;;;;4.16;100.00;100148.27;1757789;81;21070;-66
2021/12/10 05:36:01;;;;;;;41.55;20.82;;;;;;;4.13;100.00;100144.36;1758380;80;21035;-66
2021/12/10 05:38:27;;;;;;;45.25;21.50;;;;;;;4.11;100.00;100140.05;1771657;80;21606;-68
2021/12/10 05:40:55;;;;;;;115.25;45.30;;;;;;;4.07;100.00;100144.45;1757045;80;21140;-68
2021/12/10 05:43:22;;;;;;;40.03;21.70;;;;;;;4.03;100.00;100150.56;1769387;80;21063;-68
2021/12/10 05:45:49;;;;;;;41.95;21.33;;;;;;;4.04;100.00;100152.72;1783550;80;21067;-67
2021/12/10 05:48:17;;;;;;;38.63;20.77;;;;;;;4.04;100.00;100150.97;1787642;80;21700;-70
2021/12/10 05:50:43;;;;;;;35.80;18.55;;;;;;;4.04;100.00;100147.06;1732034;80;21120;-69
2021/12/10 05:53:10;;;;;;;39.45;21.12;;;;;;;4.01;100.00;100150.16;1779341;80;21108;-69
2021/12/10 05:55:38;;;;;;;36.13;18.77;;;;;;;4.01;100.00;100156.67;1756802;81;21528;-69
2021/12/10 05:58:05;;;;;;;40.35;20.52;;;;;;;4.01;100.00;100156.23;1755240;81;21060;-69
2021/12/10 06:00:39;;;;;;;41.42;21.62;;;;;;;4.02;100.00;100158.39;1756075;81;21087;-69
2021/12/10 06:03:06;;;;;;;41.10;20.82;;;;;;;4.02;100.00;100155.78;1759292;80;21080;-68
2021/12/10 06:05:34;;;;;;;39.03;18.70;;;;;;;4.01;100.00;100165.80;1780915;80;21156;-68
2021/12/10 06:08:03;;;;;;;38.53;19.42;;;;;;;4.01;100.00;100168.41;1775301;80;21071;-70
2021/12/10 06:10:29;;;;;;;38.73;20.45;;;;;;;3.98;100.00;100167.55;1787583;80;21004;-70
2021/12/10 06:12:56;;;;;;;37.13;20.57;;;;;;;3.98;100.00;100171.45;1758200;80;21091;-69
2021/12/10 06:15:25;;;;;;;36.77;19.30;;;;;;;4.01;100.00;100169.70;1757705;80;21067;-68
2021/12/10 06:17:51;;;;;;;43.28;21.48;;;;;;;4.03;100.00;100174.47;1771925;80;21723;-68
2021/12/10 06:20:22;;;;;;;40.35;21.37;;;;;;;4.04;100.00;100165.75;1763829;80;21495;-71
2021/12/10 06:22:49;;;;;;;37.88;19.50;;;;;;;4.05;100.00;100164.86;1765439;78;28784;-70
2021/12/10 06:25:17;;;;;;;51.40;23.15;;;;;;;4.07;100.00;100157.89;1769549;78;20985;-68
2021/12/10 06:27:44;;;;;;;39.73;20.08;;;;;;;4.07;100.00;100160.50;1767787;80;21034;-69
2021/12/10 06:30:16;;;;;;;40.25;19.25;;;;;;;4.10;100.00;100160.49;1769075;78;21134;-69
2021/12/10 06:32:43;;;;;;;;;;;;;;;4.10;100.00;100158.74;1768150;78;21115;-68
2021/12/10 06:35:10;;;;;;;46.13;21.80;;;;;;;4.12;100.00;100157.44;1761508;80;20239;-70
2021/12/10 06:37:37;;;;;;;44.10;20.27;;;;;;;4.13;100.00;100157.84;1780371;80;21065;-70
2021/12/10 06:40:10;;;;;;;53.08;22.98;;;;;;;4.16;100.00;100156.08;1761935;80;21604;-68
2021/12/10 06:42:37;;;;;;;63.58;27.00;;;;;;;4.18;100.00;100165.17;1785225;80;21120;-69
2021/12/10 06:45:08;;;;;;;48.35;24.15;;;;;;;4.20;100.00;100160.36;1778617;80;21043;-69
2021/12/10 06:47:35;;;;;;;112.25;39.60;;;;;;;4.24;100.00;100164.26;1745092;80;21053;-69
2021/12/10 06:50:02;;;;;;;157.60;53.60;;;;;;;4.26;100.00;100159.89;1764484;80;21108;-68
2021/12/10 06:52:29;;;;;;;177.35;57.75;;;;;;;4.28;100.00;100159.41;1762713;78;21524;-69
2021/12/10 06:54:56;;;;;;;229.47;77.80;;;;;;;4.30;100.00;100165.47;1764276;80;21166;-68
2021/12/10 06:57:22;;;;;;;49.35;24.50;;;;;;;4.28;100.00;100157.69;1762885;80;21543;-68
2021/12/10 06:59:48;;;;;;;43.05;21.65;;;;;;;4.29;100.00;100164.62;1760887;80;21597;-68
2021/12/10 07:02:15;;;;;;;61.68;27.35;;;;;;;4.31;100.00;100154.19;1780443;80;21004;-69
2021/12/10 07:04:41;;;;;;;65.95;31.05;;;;;;;4.30;100.00;100161.15;1778765;80;21147;-69
2021/12/10 07:07:09;;;;;;;41.35;21.17;;;;;;;4.32;100.00;100163.27;1771063;80;21127;-69
2021/12/10 07:09:36;;;;;;;42.03;22.40;;;;;;;4.33;100.00;100162.86;1767911;80;21063;-70
2021/12/10 07:12:03;;;;;;;46.30;22.22;;;;;;;4.36;100.00;100161.06;1752705;80;21092;-71
2021/12/10 07:14:30;;;;;;;47.90;24.10;;;;;;;4.38;100.00;100155.39;1760391;80;21077;-68
2021/12/10 07:16:57;;;;;;;49.98;25.02;;;;;;;4.38;100.00;100161.91;1768536;80;21060;-66
2021/12/10 07:19:26;;;;;;;44.48;22.93;;;;;;;4.43;100.00;100164.47;1752556;80;21100;-69
2021/12/10 07:21:53;;;;;;;48.45;21.85;;;;;;;4.44;100.00;100157.08;1750242;80;21582;-69
2021/12/10 07:24:19;;;;;;;45.67;23.15;;;;;;;4.46;100.00;100158.34;1770813;80;21125;-67
2021/12/10 07:26:47;;;;;;;48.42;23.85;;;;;;;4.47;100.00;100151.82;1775705;80;21072;-68
2021/12/10 07:29:14;;;;;;;45.00;23.50;;;;;;;4.50;100.00;100154.83;1761233;80;21132;-70
2021/12/10 07:31:43;;;;;;;38.02;20.30;;;;;;;4.52;100.00;100151.77;1761495;80;21138;-67
2021/12/10 07:34:09;;;;;;;42.83;22.05;;;;;;;4.56;100.00;100150.86;1766951;80;22205;-69
2021/12/10 07:36:37;;;;;;;42.67;21.05;;;;;;;4.59;100.00;100144.28;1759053;80;21058;-69
2021/12/10 07:39:06;;;;;;;42.60;20.77;;;;;;;4.61;100.00;100152.96;1780244;80;21077;-69
2021/12/10 07:41:33;;;;;;;43.48;21.15;;;;;;;4.61;100.00;100153.81;1775720;80;21029;-71
2021/12/10 07:44:02;;;;;;;43.55;23.75;;;;;;;4.62;100.00;100154.67;1765171;80;21394;-68
2021/12/10 07:46:32;;;;;;;42.38;21.40;;;;;;;4.64;100.00;100149.00;1773838;80;21508;-69
2021/12/10 07:48:58;;;;;;;43.33;23.75;;;;;;;4.66;100.00;100151.15;1758531;80;21765;-70
2021/12/10 07:51:28;;;;;;;37.70;19.77;;;;;;;4.73;100.00;100152.80;1754685;80;21622;-69
2021/12/10 07:53:57;;;;;;;49.27;24.30;;;;;;;4.74;100.00;100155.84;1756233;80;21062;-70
2021/12/10 07:56:25;;;;;;;46.15;22.42;;;;;;;4.76;100.00;100155.39;1775195;80;21839;-68
2021/12/10 07:58:53;;;;;;;43.38;22.32;;;;;;;4.77;100.00;100144.05;1778157;80;21518;-70
2021/12/10 08:01:25;;;;;;;44.77;23.07;;;;;;;4.77;100.00;100137.53;1779796;80;21055;-70
2021/12/10 08:03:52;;;;;;;41.40;20.88;;;;;;;4.79;100.00;100134.46;1757898;80;21077;-68
2021/12/10 08:06:20;;;;;;;46.77;22.35;;;;;;;4.81;100.00;100135.76;1758874;80;21094;-70
2021/12/10 08:08:48;;;;;;;40.08;21.95;;;;;;;4.82;100.00;100142.23;1776294;80;21526;-68
2021/12/10 08:11:15;;;;;;;41.28;21.20;;;;;;;4.86;100.00;100137.86;1757273;80;21115;-71
2021/12/10 08:13:41;;;;;;;53.60;27.48;;;;;;;4.86;100.00;100133.09;1772415;80;21068;-68
2021/12/10 08:16:08;;;;;;;45.08;23.85;;;;;;;4.86;100.00;100133.09;1760387;80;21111;-69
2021/12/10 08:18:34;;;;;;;43.80;22.70;;;;;;;4.86;100.00;100132.64;1780055;80;21103;-69
2021/12/10 08:21:01;;;;;;;57.35;28.35;;;;;;;4.86;100.00;100133.09;1760875;79;21485;-70
2021/12/10 08:23:28;;;;;;;44.23;23.10;;;;;;;4.90;100.00;100131.72;1772107;80;21055;-70
2021/12/10 08:25:55;;;;;;;41.30;22.37;;;;;;;4.95;100.00;100113.39;1763328;80;21087;-69
2021/12/10 08:28:25;;;;;;;43.68;23.40;;;;;;;4.99;100.00;100091.55;1751585;79;21491;-70
2021/12/10 08:30:51;;;;;;;44.05;21.80;;;;;;;5.03;100.00;100082.80;1761218;80;21077;-69
2021/12/10 08:33:19;;;;;;;46.28;23.27;;;;;;;5.09;100.00;100087.08;1760029;80;21103;-70
2021/12/10 08:35:51;;;;;;;50.48;24.72;;;;;;;5.09;100.00;100097.07;1760467;80;21062;-67
2021/12/10 08:38:17;;;;;;;43.95;24.00;;;;;;;5.14;100.00;100086.11;1704336;83;21094;-68
2021/12/10 08:40:49;;;;;;;53.38;25.45;;;;;;;5.24;100.00;100083.79;1722659;82;21096;-70
2021/12/10 08:43:16;;;;;;;50.65;24.52;;;;;;;5.35;100.00;100082.73;1711893;82;21052;-70
2021/12/10 08:45:42;;;;;;;38.25;20.37;;;;;;;5.46;100.00;100083.43;1730700;82;21103;-68
2021/12/10 08:48:09;;;;;;;45.08;22.00;;;;;;;5.56;100.00;100087.59;1717092;82;21136;-67
2021/12/10 08:50:35;;;;;;;37.42;21.05;;;;;;;5.65;100.00;100090.50;1713777;82;21108;-67
2021/12/10 08:53:09;;;;;;;46.83;23.92;;;;;;;5.65;100.00;100095.27;1711818;82;21088;-67
2021/12/10 08:55:36;;;;;;;42.08;20.40;;;;;;;5.66;100.00;100083.95;1721136;82;20994;-69
2021/12/10 08:58:04;;;;;;;44.27;22.10;;;;;;;5.68;100.00;100085.20;1715895;83;21121;-68
2021/12/10 09:00:32;;;;;;;41.30;20.68;;;;;;;5.71;100.00;100081.70;1720842;82;21088;-69
2021/12/10 09:03:01;;;;;;;35.43;20.15;;;;;;;5.68;100.00;100082.17;1729946;82;21041;-67
2021/12/10 09:05:28;;;;;;;40.58;20.80;;;;;;;5.67;100.00;100076.97;1724294;82;21077;-66
2021/12/10 09:07:54;;;;;;;37.65;20.55;;;;;;;5.62;100.00;100077.05;1707407;82;21603;-68
2021/12/10 09:10:26;;;;;;;38.67;20.23;;;;;;;5.63;100.00;100072.22;1712546;83;22110;-67
2021/12/10 09:12:53;;;;;;;41.80;21.12;;;;;;;5.65;100.00;100069.59;1708446;82;21532;-68
2021/12/10 09:15:22;;;;;;;38.95;22.00;;;;;;;5.66;100.00;100068.73;1714773;83;21143;-71
2021/12/10 09:17:50;;;;;;;40.85;21.57;;;;;;;5.69;100.00;100068.66;1719591;82;21085;-69
2021/12/10 09:20:21;;;;;;;41.13;21.30;;;;;;;5.75;100.00;100066.37;1723345;82;21600;-69
2021/12/10 09:22:48;;;;;;;42.85;21.05;;;;;;;5.81;100.00;100080.19;1721446;82;21136;-69
2021/12/10 09:25:16;;;;;;;40.95;22.02;;;;;;;5.89;100.00;100080.06;1723248;82;21596;-70
2021/12/10 09:27:43;;;;;;;47.03;22.22;;;;;;;5.97;100.00;100083.86;1719359;82;21009;-69
2021/12/10 09:30:13;;;;;;;37.98;20.12;;;;;;;6.01;100.00;100082.47;1707242;83;21105;-69
2021/12/10 09:32:40;;;;;;;36.28;18.92;;;;;;;5.97;100.00;100087.33;1707968;82;21271;-68
2021/12/10 09:35:07;;;;;;;30.77;18.27;;;;;;;5.97;100.00;100087.33;1733471;81;21096;-69
2021/12/10 09:37:36;;;;;;;31.42;17.90;;;;;;;5.91;100.00;100083.94;1736112;82;21050;-68
2021/12/10 09:40:12;;;;;;;29.92;16.20;;;;;;;5.89;100.00;100091.37;1736593;82;21095;-68
2021/12/10 09:42:40;;;;;;;29.55;16.15;;;;;;;5.84;100.00;100091.91;1736052;82;21085;-69
2021/12/10 09:45:10;;;;;;;35.80;20.25;;;;;;;5.77;100.00;100085.04;1736626;82;21118;-69
2021/12/10 09:47:38;;;;;;;34.13;18.30;;;;;;;5.73;100.00;100087.73;1748757;81;21110;-69
2021/12/10 09:50:08;;;;;;;31.82;17.48;;;;;;;5.71;100.00;100096.08;1757478;81;21045;-69
2021/12/10 09:52:36;;;;;;;;;;;;;;;5.72;100.00;100067.73;1755352;81;21508;-69
2021/12/10 09:55:04;;;;;;;32.13;18.73;;;;;;;5.70;100.00;100077.35;1727471;83;20196;-68
2021/12/10 09:57:33;;;;;;;36.65;20.88;;;;;;;5.67;100.00;100071.74;1701037;83;21080;-69
2021/12/10 10:01:32;;;;;;;33.87;18.50;;;;;;;5.65;100.00;100066.53;1813527;79;28490;-69
2021/12/10 10:04:02;;;;;;;33.28;19.20;;;;;;;5.57;100.00;100069.74;1786924;80;21033;-69
2021/12/10 10:06:33;;;;;;;34.20;20.25;;;;;;;5.54;100.00;100063.24;1786844;80;21113;-69
2021/12/10 10:09:00;;;;;;;33.73;18.10;;;;;;;5.55;100.00;100068.91;1786803;80;20978;-70
2021/12/10 10:11:35;;;;;;;36.05;19.40;;;;;;;5.58;100.00;100062.76;1786821;80;21025;-69
2021/12/10 10:14:01;;;;;;;29.37;18.55;;;;;;;5.57;100.00;100057.13;1786513;80;22276;-69
2021/12/10 10:16:29;;;;;;;36.70;18.98;;;;;;;5.58;100.00;100056.23;1766657;79;20945;-69
2021/12/10 10:18:56;;;;;;;30.80;18.37;;;;;;;5.61;100.00;100054.44;1755820;81;21116;-68
2021/12/10 10:21:31;;;;;;;36.45;19.00;;;;;;;5.60;100.00;100040.94;1755349;81;21584;-70
2021/12/10 10:23:58;;;;;;;33.28;18.25;;;;;;;5.59;100.00;100048.38;1754985;81;21595;-67
2021/12/10 10:26:32;;;;;;;34.25;18.92;;;;;;;5.60;100.00;100051.39;1727959;81;21132;-68
2021/12/10 10:29:07;;;;;;;35.80;19.00;;;;;;;5.57;100.00;100038.84;1753263;81;21555;-68
2021/12/10 10:31:34;;;;;;;32.75;19.15;;;;;;;5.54;100.00;100033.20;1751229;81;21144;-68
2021/12/10 10:34:01;;;;;;;34.23;20.05;;;;;;;5.52;100.00;100037.63;1753766;81;21045;-68
2021/12/10 10:36:32;;;;;;;39.75;21.95;;;;;;;5.53;100.00;100042.39;1755060;81;21084;-69
2021/12/10 10:39:14;;;;;;;54.67;33.38;;;;;;;5.53;100.00;100025.41;1756428;81;21548;-68
2021/12/10 10:41:44;;;;;;;34.58;23.15;;;;;;;5.50;100.00;100032.86;1752963;81;21063;-70
2021/12/10 10:44:11;;;;;;;30.82;18.20;;;;;;;5.51;100.00;100013.68;1747756;81;21817;-69
2021/12/10 10:46:37;;;;;;;32.50;17.82;;;;;;;5.52;100.00;100029.78;1749626;80;21643;-70
2021/12/10 10:49:04;;;;;;;39.92;22.50;;;;;;;5.46;100.00;100015.06;1752985;81;21049;-70
2021/12/10 10:51:40;;;;;;;40.90;22.42;;;;;;;5.44;100.00;100019.45;1744458;81;21049;-69
2021/12/10 10:54:11;;;;;;;38.08;22.15;;;;;;;5.48;100.00;100018.97;1749764;81;21636;-70
2021/12/10 10:56:46;;;;;;;39.33;19.73;;;;;;;5.51;100.00;100014.98;1752352;81;21113;-69
2021/12/10 10:59:24;;;;;;;38.90;19.75;;;;;;;5.52;100.00;100011.50;1753098;81;21142;-68
2021/12/10 11:02:00;;;;;;;35.50;20.12;;;;;;;5.51;100.00;100004.53;1746778;81;21048;-70
2021/12/10 11:04:34;;;;;;;40.73;21.70;;;;;;;5.50;100.00;100002.83;1726150;81;21096;-69
2021/12/10 11:07:26;;;;;;;35.55;19.45;;;;;;;5.53;100.00;99994.07;1752996;81;21029;-67
2021/12/10 11:09:55;;;;;;;;;;;;;;;5.56;100.00;100005.76;1756291;81;21143;-68
2021/12/10 11:12:27;;;;;;;34.35;19.92;;;;;;;5.54;100.00;99999.25;1740254;81;20234;-68
2021/12/10 11:14:56;;;;;;;34.18;18.77;;;;;;;5.53;100.00;99991.00;1741893;81;21766;-69
2021/12/10 11:17:30;;;;;;;37.25;20.08;;;;;;;5.53;100.00;99993.62;1753621;81;21101;-70
2021/12/10 11:20:05;;;;;;;41.37;23.32;;;;;;;5.56;100.00;99987.47;1741122;81;21559;-67
2021/12/10 11:22:32;;;;;;;34.03;18.85;;;;;;;5.55;100.00;99980.09;1745491;81;21136;-67
2021/12/10 11:25:07;;;;;;;43.58;23.77;;;;;;;5.57;100.00;99982.23;1754478;81;21080;-67
2021/12/10 11:27:38;;;;;;;48.65;28.17;;;;;;;5.57;100.00;99975.70;1746791;81;21085;-68